Wauregan, Connecticut
Current Conditions -  °F | °C
As of 9:52 PM on Tuesday 21 Oct 2014 (Local Time) from KIJD Reporting Station
Overcast Overcast  
Wind Chill: 58°   Ceiling: 1400
Heat Index: 58°   Visibility: 10mi
Dew Point: 53°   Wind: 8mph
Humidity: 84%   Direction: 40°NE
Pressure: 29.95"   Gusts: NA
Location:  41.75°N, 71.91°W
Report Text: KIJD 220152Z AUTO 04007KT 10SM BKN014 OVC100 14/12 A2995 RMK AO2 SLP142 T01440117
Loading
Personal Weather Stations






























Interactive Weather Map
Tropical Storm Tracking
New forecast layout! Learn more

10-Day Weather Forecast

Advertisements
Track Severe Weather on mobile